Jaipur International Airport


Codes: VIJP/JAI
Name: Jaipur International Airport
City: Jaipur
Country: India
Elevation: 1263 ft.
Website:
Wikipedia:

Photos at Jaipur International Airport


   Photos courtesy of SpottingLog. You can add your own sightings and photos by signing up for a free trial today.



No photos found.

Weather at Jaipur International Airport


Time (UTC)DescriptionTempratureWindCloud coverageVisibilityPressureHumidity
16-Jun-2024 03:00Few Clouds35°C20 mph, 14%10000m1004hPa39%
16-Jun-2024 06:00Few Clouds38°C16 mph, W11%10000m1003hPa30%
16-Jun-2024 09:00Clear Sky42°C18 mph, W10%10000m1000hPa22%
16-Jun-2024 12:00Few Clouds42°C13 mph, W12%10000m998hPa19%
16-Jun-2024 15:00Clear Sky38°C13 mph, W5%10000m999hPa25%
16-Jun-2024 18:00Clear Sky36°C16 mph, W2%10000m1000hPa33%
16-Jun-2024 21:00Clear Sky34°C16 mph, W0%10000m999hPa36%
17-Jun-2024 00:00Clear Sky33°C16 mph, W1%10000m1001hPa38%
17-Jun-2024 03:00Clear Sky37°C18 mph, W0%10000m1003hPa30%
17-Jun-2024 06:00Clear Sky41°C16 mph, W0%10000m1002hPa24%
17-Jun-2024 09:00Clear Sky44°C13 mph, W0%10000m999hPa19%
17-Jun-2024 12:00Few Clouds43°C16 mph, W20%10000m998hPa19%
17-Jun-2024 15:00Broken Clouds40°C16 mph, W68%10000m999hPa24%
17-Jun-2024 18:00Scattered Clouds38°C16 mph, W47%10000m999hPa30%
17-Jun-2024 21:00Few Clouds35°C18 mph, W13%10000m999hPa36%
18-Jun-2024 00:00Clear Sky33°C18 mph, W8%10000m1000hPa41%
18-Jun-2024 03:00Clear Sky35°C20 mph, W5%10000m1002hPa36%
18-Jun-2024 06:00Clear Sky40°C20 mph, W4%10000m1001hPa29%
18-Jun-2024 09:00Clear Sky42°C18 mph, W0%10000m998hPa23%
18-Jun-2024 12:00Clear Sky41°C20 mph, W1%10000m997hPa24%
18-Jun-2024 15:00Clear Sky38°C16 mph, W0%10000m998hPa28%
18-Jun-2024 18:00Clear Sky36°C18 mph, W1%10000m999hPa33%
18-Jun-2024 21:00Clear Sky33°C16 mph, W1%10000m998hPa39%
19-Jun-2024 00:00Clear Sky31°C18 mph, W2%10000m999hPa44%
19-Jun-2024 03:00Clear Sky33°C18 mph, W2%10000m1001hPa44%
19-Jun-2024 06:00Clear Sky38°C18 mph, W2%10000m999hPa32%
19-Jun-2024 09:00Clear Sky41°C16 mph, W3%10000m996hPa24%
19-Jun-2024 12:00Clear Sky41°C16 mph, W3%10000m995hPa23%
19-Jun-2024 15:00Clear Sky38°C13 mph, W4%10000m995hPa26%
19-Jun-2024 18:00Clear Sky36°C11 mph, W4%10000m997hPa30%
19-Jun-2024 21:00Clear Sky33°C13 mph, W2%10000m997hPa41%
20-Jun-2024 00:00Clear Sky32°C16 mph, W5%10000m998hPa50%
20-Jun-2024 03:00Few Clouds33°C18 mph, W21%10000m1000hPa49%
20-Jun-2024 06:00Few Clouds38°C13 mph, SW11%10000m999hPa34%
20-Jun-2024 09:00Clear Sky41°C11 mph, SW1%10000m997hPa25%
20-Jun-2024 12:00Clear Sky41°C13 mph, SW4%10000m995hPa23%
20-Jun-2024 15:00Clear Sky38°C9 mph, SW2%10000m996hPa28%
20-Jun-2024 18:00Few Clouds37°C13 mph, SW11%10000m998hPa30%
20-Jun-2024 21:00Clear Sky34°C16 mph, SW5%10000m998hPa37%
21-Jun-2024 00:00Clear Sky32°C13 mph, W2%10000m999hPa41%